createdAt,value
2022-10-19T00:00:36.296Z,0.00
2022-10-19T00:01:36.536Z,0.00
2022-10-19T00:02:36.501Z,0.00
2022-10-19T00:03:36.723Z,0.00
2022-10-19T00:04:36.753Z,0.00
2022-10-19T00:05:36.926Z,0.00
2022-10-19T00:06:37.010Z,0.00
2022-10-19T00:07:37.130Z,0.00
2022-10-19T00:08:37.261Z,0.00
2022-10-19T00:09:37.409Z,0.00
2022-10-19T00:10:37.572Z,0.00
2022-10-19T00:11:37.672Z,0.00
2022-10-19T00:12:37.934Z,0.00
2022-10-19T00:13:37.939Z,0.00
2022-10-19T00:14:38.047Z,0.00
2022-10-19T00:15:38.247Z,0.00
2022-10-19T00:16:38.318Z,0.00
2022-10-19T00:17:38.457Z,0.00
2022-10-19T00:18:38.588Z,0.00
2022-10-19T00:19:38.736Z,0.00
2022-10-19T00:20:38.826Z,0.00
2022-10-19T00:21:39.014Z,0.00
2022-10-19T00:22:39.086Z,0.00
2022-10-19T00:23:39.216Z,0.00
2022-10-19T00:24:39.385Z,0.00
2022-10-19T00:25:39.508Z,0.00
2022-10-19T00:26:39.576Z,0.00
2022-10-19T00:27:39.724Z,0.00
2022-10-19T00:28:39.917Z,0.00
2022-10-19T00:29:40.012Z,0.00
2022-10-19T00:30:40.253Z,0.00
2022-10-19T00:31:40.271Z,0.00
2022-10-19T00:32:40.477Z,0.00
2022-10-19T00:33:40.493Z,0.00
2022-10-19T00:34:40.644Z,0.00
2022-10-19T00:35:40.741Z,0.00
2022-10-19T00:36:40.863Z,0.00
2022-10-19T00:37:41.005Z,0.00
2022-10-19T00:38:41.137Z,0.00
2022-10-19T00:39:41.352Z,0.00
2022-10-19T00:40:41.423Z,0.00
2022-10-19T00:41:41.586Z,0.00
2022-10-19T00:42:41.684Z,0.00
2022-10-19T00:43:41.824Z,0.00
2022-10-19T00:44:41.990Z,0.00
2022-10-19T00:45:42.091Z,0.00
2022-10-19T00:46:42.219Z,0.00
2022-10-19T00:47:42.342Z,0.00
2022-10-19T00:48:42.518Z,0.00
2022-10-19T00:49:42.830Z,0.00
2022-10-19T00:50:42.741Z,0.00
2022-10-19T00:51:42.879Z,0.00
2022-10-19T00:52:43.030Z,0.00
2022-10-19T00:53:43.170Z,0.00
2022-10-19T00:54:43.380Z,0.00
2022-10-19T00:55:43.500Z,0.00
2022-10-19T00:56:43.535Z,0.00
2022-10-19T00:57:43.734Z,0.00
2022-10-19T00:58:43.814Z,0.00
2022-10-19T00:59:43.987Z,0.00
2022-10-19T01:00:44.117Z,0.00
2022-10-19T01:01:44.204Z,0.00
2022-10-19T01:02:44.297Z,0.00
2022-10-19T01:03:44.433Z,0.00
2022-10-19T01:04:44.605Z,0.00
2022-10-19T01:05:44.685Z,0.00
2022-10-19T01:06:44.869Z,0.00
2022-10-19T01:07:44.965Z,0.00
2022-10-19T01:08:45.086Z,0.00
2022-10-19T01:09:45.276Z,0.00
2022-10-19T01:10:45.393Z,0.00
2022-10-19T01:11:45.485Z,0.00
2022-10-19T01:12:45.630Z,0.00
2022-10-19T01:13:45.763Z,0.00
2022-10-19T01:14:45.967Z,0.00
2022-10-19T01:15:46.078Z,0.00
2022-10-19T01:16:46.163Z,0.00
2022-10-19T01:17:46.273Z,0.00
2022-10-19T01:18:46.413Z,0.00
2022-10-19T01:19:46.597Z,0.00
2022-10-19T01:20:46.683Z,0.00
2022-10-19T01:21:46.812Z,0.00
2022-10-19T01:22:46.961Z,0.00
2022-10-19T01:23:47.121Z,0.00
2022-10-19T01:24:47.317Z,0.00
2022-10-19T01:25:47.371Z,0.00
2022-10-19T01:26:47.543Z,0.00
2022-10-19T01:27:47.631Z,0.00
2022-10-19T01:28:47.850Z,0.00
2022-10-19T01:29:47.958Z,0.00
2022-10-19T01:30:48.129Z,0.00
2022-10-19T01:31:48.178Z,0.00
2022-10-19T01:32:48.288Z,0.00
2022-10-19T01:33:48.516Z,0.00
2022-10-19T01:34:48.628Z,0.00
2022-10-19T01:35:48.658Z,0.00
2022-10-19T01:36:48.778Z,0.00
2022-10-19T01:37:48.916Z,0.00
2022-10-19T01:38:49.052Z,0.00
2022-10-19T01:39:49.989Z,0.00
2022-10-19T01:40:49.370Z,0.00
2022-10-19T01:41:49.445Z,0.00
2022-10-19T01:42:49.658Z,0.00
2022-10-19T01:43:49.707Z,0.00
2022-10-19T01:44:49.885Z,0.00
2022-10-19T01:45:49.977Z,0.00
2022-10-19T01:46:50.123Z,0.00
2022-10-19T01:47:50.255Z,0.00
2022-10-19T01:48:50.385Z,0.00
2022-10-19T01:49:50.525Z,0.00
2022-10-19T01:50:50.645Z,0.00
2022-10-19T01:51:50.809Z,0.00
2022-10-19T01:52:51.034Z,0.00
2022-10-19T01:53:51.033Z,0.00
2022-10-19T01:54:51.263Z,0.00
2022-10-19T01:55:51.296Z,0.00
2022-10-19T01:56:51.443Z,0.00
2022-10-19T01:57:51.523Z,0.00
2022-10-19T01:58:51.642Z,0.00
2022-10-19T01:59:51.853Z,0.00
2022-10-19T02:00:52.022Z,0.00
2022-10-19T02:01:52.042Z,0.00
2022-10-19T02:02:52.132Z,0.00
2022-10-19T02:03:52.259Z,0.00
2022-10-19T02:04:52.421Z,0.00
2022-10-19T02:05:52.509Z,0.00
2022-10-19T02:06:52.630Z,0.00
2022-10-19T02:07:52.785Z,0.00
2022-10-19T02:08:52.930Z,0.00
2022-10-19T02:09:53.071Z,0.00
2022-10-19T02:10:53.142Z,0.00
2022-10-19T02:11:56.193Z,0.00
2022-10-19T02:12:53.388Z,0.00
2022-10-19T02:13:53.498Z,0.00
2022-10-19T02:14:53.675Z,0.00
2022-10-19T02:15:53.737Z,0.00
2022-10-19T02:16:53.880Z,0.00
2022-10-19T02:17:54.028Z,0.00
2022-10-19T02:18:54.156Z,0.00
2022-10-19T02:19:54.320Z,0.00
2022-10-19T02:20:54.417Z,0.00
2022-10-19T02:21:54.536Z,0.00
2022-10-19T02:22:54.675Z,0.00
2022-10-19T02:23:54.816Z,0.00
2022-10-19T02:24:54.976Z,0.00
2022-10-19T02:25:55.088Z,0.00
2022-10-19T02:26:55.205Z,0.00
2022-10-19T02:27:55.324Z,0.00
2022-10-19T02:28:55.445Z,0.00
2022-10-19T02:29:55.646Z,0.00
2022-10-19T02:30:55.714Z,0.00
2022-10-19T02:31:55.845Z,0.00
2022-10-19T02:32:56.053Z,0.00
2022-10-19T02:33:56.104Z,0.00
2022-10-19T02:34:56.305Z,0.00
2022-10-19T02:35:56.363Z,0.00
2022-10-19T02:36:56.482Z,0.00
2022-10-19T02:37:58.062Z,0.00
2022-10-19T02:38:56.781Z,0.00
2022-10-19T02:39:56.952Z,0.00
2022-10-19T02:40:57.052Z,0.00
2022-10-19T02:41:57.151Z,0.00
2022-10-19T02:42:57.273Z,0.00
2022-10-19T02:43:57.399Z,0.00
2022-10-19T02:44:57.551Z,0.00
2022-10-19T02:45:57.679Z,0.00
2022-10-19T02:46:57.800Z,0.00
2022-10-19T02:47:57.899Z,0.00
2022-10-19T02:48:57.999Z,0.00
2022-10-19T02:49:58.179Z,0.00
2022-10-19T02:50:58.299Z,0.00
2022-10-19T02:51:58.421Z,0.00
2022-10-19T02:52:58.586Z,0.00
2022-10-19T02:54:01.197Z,0.00
2022-10-19T02:54:59.868Z,0.00
2022-10-19T02:55:58.898Z,0.00
2022-10-19T02:56:59.029Z,0.00
2022-10-19T02:57:59.176Z,0.00
2022-10-19T02:58:59.297Z,0.00
2022-10-19T02:59:59.459Z,0.00
2022-10-19T03:00:59.616Z,0.00
2022-10-19T03:01:59.696Z,0.00
2022-10-19T03:02:59.855Z,0.00
2022-10-19T03:03:59.955Z,0.00
2022-10-19T03:05:00.153Z,0.00
2022-10-19T03:06:00.257Z,0.00
2022-10-19T03:07:00.337Z,0.00
2022-10-19T03:08:00.487Z,0.00
2022-10-19T03:09:00.634Z,0.00
2022-10-19T03:10:00.774Z,0.00
2022-10-19T03:11:00.851Z,0.00
2022-10-19T03:12:01.143Z,0.00
2022-10-19T03:13:01.138Z,0.00
2022-10-19T03:14:01.226Z,0.00
2022-10-19T03:15:01.442Z,0.00
2022-10-19T03:16:01.473Z,0.00
2022-10-19T03:17:01.611Z,0.00
2022-10-19T03:18:01.724Z,0.00
2022-10-19T03:19:01.863Z,0.00
2022-10-19T03:20:02.022Z,0.00
2022-10-19T03:21:02.127Z,0.00
2022-10-19T03:22:02.258Z,0.00
2022-10-19T03:23:02.407Z,0.00
2022-10-19T03:24:02.524Z,0.00
2022-10-19T03:25:02.641Z,0.00
2022-10-19T03:26:02.751Z,0.00
2022-10-19T03:27:02.851Z,0.00
2022-10-19T03:28:02.992Z,0.00
2022-10-19T03:29:03.138Z,0.00
2022-10-19T03:30:03.232Z,0.00
2022-10-19T03:31:03.400Z,0.00
2022-10-19T03:32:03.498Z,0.00
2022-10-19T03:33:03.728Z,0.00
2022-10-19T03:34:03.770Z,0.00
2022-10-19T03:35:03.920Z,0.00
2022-10-19T03:36:04.017Z,0.00
2022-10-19T03:37:04.146Z,0.00
2022-10-19T03:38:04.267Z,0.00
2022-10-19T03:39:04.411Z,0.00
2022-10-19T03:40:04.566Z,0.00
2022-10-19T03:41:04.695Z,0.00
2022-10-19T03:42:04.776Z,0.00
2022-10-19T03:43:04.905Z,0.00
2022-10-19T03:44:05.040Z,0.00
2022-10-19T03:45:05.176Z,0.00
2022-10-19T03:46:05.334Z,0.00
2022-10-19T03:47:05.444Z,0.00
2022-10-19T03:48:05.580Z,0.00
2022-10-19T03:49:05.724Z,0.00
2022-10-19T03:50:05.853Z,0.00
2022-10-19T03:51:05.962Z,0.00
2022-10-19T03:52:06.074Z,0.00
2022-10-19T03:53:06.255Z,0.00
2022-10-19T03:54:06.347Z,0.00
2022-10-19T03:55:06.585Z,0.00
2022-10-19T03:56:06.603Z,0.00
2022-10-19T03:57:06.755Z,0.00
2022-10-19T03:58:06.885Z,0.00
2022-10-19T03:59:06.976Z,0.00
2022-10-19T04:00:07.191Z,0.00
2022-10-19T04:01:07.250Z,0.00
2022-10-19T04:02:07.340Z,0.00
2022-10-19T04:03:07.480Z,0.00
2022-10-19T04:04:07.613Z,0.00
2022-10-19T04:05:07.769Z,0.00
2022-10-19T04:06:07.865Z,0.00
2022-10-19T04:07:08.008Z,0.00
2022-10-19T04:08:08.159Z,0.00
2022-10-19T04:09:08.291Z,0.00
2022-10-19T04:10:08.430Z,0.00
2022-10-19T04:11:08.553Z,0.00
2022-10-19T04:12:08.661Z,0.00
2022-10-19T04:13:08.889Z,0.00
2022-10-19T04:15:09.047Z,0.00
2022-10-19T04:16:09.168Z,0.00
2022-10-19T04:17:09.264Z,0.00
2022-10-19T04:18:09.394Z,0.00
2022-10-19T04:19:09.537Z,0.00
2022-10-19T04:20:09.687Z,0.00
2022-10-19T04:21:09.758Z,0.00
2022-10-19T04:22:09.895Z,0.00
2022-10-19T04:23:10.088Z,0.00
2022-10-19T04:24:10.195Z,0.00
2022-10-19T04:25:10.324Z,0.00
2022-10-19T04:26:10.404Z,0.00
2022-10-19T04:27:10.534Z,0.00
2022-10-19T04:28:10.656Z,0.00
2022-10-19T04:29:10.887Z,0.00
2022-10-19T04:30:11.112Z,0.00
2022-10-19T04:31:11.032Z,0.00
2022-10-19T04:32:11.163Z,0.00
2022-10-19T04:33:11.393Z,0.00
2022-10-19T04:34:11.423Z,0.00
2022-10-19T04:35:11.563Z,0.00
2022-10-19T04:36:11.717Z,0.00
2022-10-19T04:37:11.852Z,0.00
2022-10-19T04:38:11.991Z,0.00
2022-10-19T04:39:12.138Z,0.00
2022-10-19T04:40:14.970Z,0.00
2022-10-19T04:41:12.403Z,0.00
2022-10-19T04:42:12.531Z,0.00
2022-10-19T04:43:12.670Z,0.00
2022-10-19T04:44:12.836Z,0.00
2022-10-19T04:45:12.959Z,0.00
2022-10-19T04:46:13.028Z,0.00
2022-10-19T04:47:13.148Z,0.00
2022-10-19T04:48:15.090Z,0.00
2022-10-19T04:49:16.440Z,0.00
2022-10-19T04:50:14.548Z,0.00
2022-10-19T04:51:13.669Z,0.00
2022-10-19T04:52:13.787Z,0.00
2022-10-19T04:53:14.090Z,0.00
2022-10-19T04:54:14.076Z,0.00
2022-10-19T04:55:14.259Z,0.00
2022-10-19T04:56:14.335Z,0.00
2022-10-19T04:57:14.455Z,0.00
2022-10-19T04:58:14.596Z,0.00
2022-10-19T04:59:14.737Z,0.00
2022-10-19T05:00:14.897Z,0.00
2022-10-19T05:01:15.043Z,0.00
2022-10-19T05:02:15.136Z,0.00
2022-10-19T05:03:15.233Z,0.00
2022-10-19T05:04:15.385Z,0.00
2022-10-19T05:05:15.496Z,0.00
2022-10-19T05:06:15.624Z,0.00
2022-10-19T05:07:15.765Z,0.00
2022-10-19T05:08:15.881Z,0.00
2022-10-19T05:09:16.064Z,0.00
2022-10-19T05:10:16.143Z,0.00
2022-10-19T05:11:16.273Z,0.00
2022-10-19T05:12:16.408Z,0.00
2022-10-19T05:13:16.642Z,0.00
2022-10-19T05:14:16.769Z,0.00
2022-10-19T05:15:16.823Z,0.00
2022-10-19T05:16:16.951Z,0.00
2022-10-19T05:17:17.102Z,0.00
2022-10-19T05:18:17.181Z,0.00
2022-10-19T05:19:17.392Z,0.00
2022-10-19T05:20:17.459Z,0.00
2022-10-19T05:21:17.588Z,0.00
2022-10-19T05:22:17.739Z,0.00
2022-10-19T05:23:17.870Z,0.00
2022-10-19T05:24:18.020Z,0.00
2022-10-19T05:25:18.119Z,0.00
2022-10-19T05:26:18.229Z,0.00
2022-10-19T05:27:18.319Z,0.00
2022-10-19T05:28:18.487Z,0.00
2022-10-19T05:29:18.621Z,0.00
2022-10-19T05:30:18.717Z,0.00
2022-10-19T05:31:18.847Z,0.00
2022-10-19T05:32:18.976Z,0.00
2022-10-19T05:33:19.178Z,0.00
2022-10-19T05:34:19.296Z,0.00
2022-10-19T05:35:22.350Z,0.00
2022-10-19T05:36:19.498Z,0.00
2022-10-19T05:37:19.660Z,0.00
2022-10-19T05:38:19.769Z,0.00
2022-10-19T05:39:19.939Z,0.00
2022-10-19T05:40:20.044Z,0.00
2022-10-19T05:41:20.165Z,0.00
2022-10-19T05:42:20.305Z,0.00
2022-10-19T05:43:20.444Z,0.00
2022-10-19T05:44:20.657Z,0.00
2022-10-19T05:45:20.711Z,0.00
2022-10-19T05:46:20.816Z,0.00
2022-10-19T05:47:21.090Z,0.00
2022-10-19T05:48:21.074Z,0.00
2022-10-19T05:49:21.253Z,0.00
2022-10-19T05:50:21.353Z,0.00
2022-10-19T05:51:21.510Z,0.00
2022-10-19T05:52:21.593Z,0.00
2022-10-19T05:53:21.790Z,0.00
2022-10-19T05:54:23.833Z,0.00
2022-10-19T05:55:22.022Z,5.62
2022-10-19T05:56:22.162Z,5.62
2022-10-19T05:57:22.290Z,5.62
2022-10-19T05:58:22.431Z,5.62
2022-10-19T05:59:22.676Z,5.62
2022-10-19T06:00:22.680Z,5.62
2022-10-19T06:01:22.810Z,5.62
2022-10-19T06:02:22.963Z,5.62
2022-10-19T06:03:23.099Z,5.62
2022-10-19T06:04:23.249Z,5.62
2022-10-19T06:05:23.328Z,5.62
2022-10-19T06:06:23.449Z,11.25
2022-10-19T06:07:23.608Z,11.25
2022-10-19T06:08:23.743Z,11.25
2022-10-19T06:09:23.901Z,11.25
2022-10-19T06:10:24.007Z,11.25
2022-10-19T06:11:24.148Z,11.25
2022-10-19T06:12:25.169Z,16.88
2022-10-19T06:13:24.534Z,16.88
2022-10-19T06:14:24.604Z,16.88
2022-10-19T06:15:24.698Z,16.88
2022-10-19T06:16:24.847Z,16.88
2022-10-19T06:17:24.973Z,22.50
2022-10-19T06:18:25.095Z,22.50
2022-10-19T06:19:25.296Z,22.50
2022-10-19T06:20:25.354Z,22.50
2022-10-19T06:21:25.483Z,28.12
2022-10-19T06:22:25.624Z,28.12
2022-10-19T06:23:25.774Z,28.12
2022-10-19T06:24:25.943Z,28.12
2022-10-19T06:25:26.047Z,33.75
2022-10-19T06:26:26.191Z,33.75
2022-10-19T06:27:26.355Z,39.38
2022-10-19T06:28:26.454Z,39.38
2022-10-19T06:29:26.583Z,39.38
2022-10-19T06:30:26.715Z,39.38
2022-10-19T06:31:26.822Z,39.38
2022-10-19T06:32:26.970Z,39.38
2022-10-19T06:33:27.159Z,45.00
2022-10-19T06:34:27.341Z,45.00
2022-10-19T06:35:27.371Z,45.00
2022-10-19T06:36:27.511Z,50.62
2022-10-19T06:37:27.630Z,50.62
2022-10-19T06:38:27.750Z,56.25
2022-10-19T06:39:27.902Z,50.62
2022-10-19T06:40:28.056Z,61.88
2022-10-19T06:41:28.137Z,61.88
2022-10-19T06:42:28.249Z,61.88
2022-10-19T06:43:28.349Z,67.50
2022-10-19T06:44:28.529Z,67.50
2022-10-19T06:45:32.222Z,73.12
2022-10-19T06:46:29.738Z,73.12
2022-10-19T06:47:28.914Z,73.12
2022-10-19T06:48:29.956Z,78.75
2022-10-19T06:49:29.168Z,84.38
2022-10-19T06:50:29.237Z,90.00
2022-10-19T06:51:29.365Z,90.00
2022-10-19T06:52:29.495Z,95.62
2022-10-19T06:53:29.656Z,90.00
2022-10-19T06:54:29.866Z,101.25
2022-10-19T06:55:29.909Z,101.25
2022-10-19T06:56:29.976Z,112.50
2022-10-19T06:57:30.135Z,112.50
2022-10-19T06:58:30.233Z,106.88
2022-10-19T06:59:30.394Z,112.50
2022-10-19T07:00:30.609Z,112.50
2022-10-19T07:01:30.672Z,118.12
2022-10-19T07:02:30.756Z,112.50
2022-10-19T07:03:30.902Z,123.75
2022-10-19T07:04:31.079Z,123.75
2022-10-19T07:05:31.152Z,129.38
2022-10-19T07:06:31.293Z,129.38
2022-10-19T07:07:31.672Z,140.62
2022-10-19T07:08:31.562Z,146.25
2022-10-19T07:09:31.742Z,146.25
2022-10-19T07:10:31.811Z,180.00
2022-10-19T07:11:31.953Z,174.38
2022-10-19T07:12:32.100Z,174.38
2022-10-19T07:13:32.304Z,174.38
2022-10-19T07:14:32.413Z,174.38
2022-10-19T07:15:32.452Z,208.12
2022-10-19T07:16:32.594Z,185.62
2022-10-19T07:17:33.104Z,208.12
2022-10-19T07:18:32.988Z,168.75
2022-10-19T07:19:33.020Z,163.12
2022-10-19T07:20:33.109Z,157.50
2022-10-19T07:21:33.249Z,168.75
2022-10-19T07:22:33.380Z,163.12
2022-10-19T07:23:33.538Z,208.12
2022-10-19T07:24:33.631Z,230.62
2022-10-19T07:25:34.728Z,213.75
2022-10-19T07:26:33.897Z,236.25
2022-10-19T07:27:37.524Z,208.12
2022-10-19T07:28:34.216Z,225.00
2022-10-19T07:29:34.317Z,225.00
2022-10-19T07:30:34.472Z,185.62
2022-10-19T07:31:34.556Z,241.88
2022-10-19T07:32:34.685Z,213.75
2022-10-19T07:33:34.935Z,236.25
2022-10-19T07:34:34.916Z,219.38
2022-10-19T07:35:35.035Z,219.38
2022-10-19T07:36:35.186Z,225.00
2022-10-19T07:37:35.569Z,230.62
2022-10-19T07:38:35.443Z,247.50
2022-10-19T07:39:35.534Z,230.62
2022-10-19T07:40:35.661Z,236.25
2022-10-19T07:41:35.784Z,208.12
2022-10-19T07:42:35.944Z,253.12
2022-10-19T07:43:36.081Z,241.88
2022-10-19T07:44:36.183Z,241.88
2022-10-19T07:45:36.303Z,264.38
2022-10-19T07:46:36.373Z,264.38
2022-10-19T07:47:36.682Z,315.00
2022-10-19T07:48:36.672Z,241.88
2022-10-19T07:49:36.753Z,258.75
2022-10-19T07:50:36.893Z,264.38
2022-10-19T07:51:37.042Z,258.75
2022-10-19T07:52:37.301Z,286.88
2022-10-19T07:53:37.373Z,292.50
2022-10-19T07:54:37.441Z,275.62
2022-10-19T07:55:37.560Z,275.62
2022-10-19T07:56:37.699Z,270.00
2022-10-19T07:57:37.862Z,309.38
2022-10-19T07:58:37.979Z,348.75
2022-10-19T07:59:38.092Z,320.62
2022-10-19T08:00:41.290Z,315.00
2022-10-19T08:01:38.399Z,281.25
2022-10-19T08:02:54.754Z,371.25
2022-10-19T08:05:39.890Z,393.75
2022-10-19T08:06:39.025Z,337.50
2022-10-19T08:07:39.168Z,376.88
2022-10-19T08:08:39.373Z,365.62
2022-10-19T08:09:54.857Z,343.12
2022-10-19T08:10:40.566Z,281.25
2022-10-19T08:11:39.677Z,326.25
2022-10-19T08:12:39.795Z,320.62
2022-10-19T08:13:40.065Z,286.88
2022-10-19T08:14:40.084Z,303.75
2022-10-19T08:15:40.175Z,326.25
2022-10-19T08:16:40.319Z,348.75
2022-10-19T08:17:40.442Z,315.00
2022-10-19T08:18:40.616Z,337.50
2022-10-19T08:19:40.717Z,343.12
2022-10-19T08:20:40.817Z,371.25
2022-10-19T08:21:40.953Z,326.25
2022-10-19T08:22:41.091Z,292.50
2022-10-19T08:23:41.233Z,326.25
2022-10-19T08:24:41.378Z,393.75
2022-10-19T08:25:41.512Z,337.50
2022-10-19T08:26:41.651Z,371.25
2022-10-19T08:27:41.795Z,343.12
2022-10-19T08:28:41.952Z,371.25
2022-10-19T08:29:42.042Z,438.75
2022-10-19T08:30:42.174Z,399.38
2022-10-19T08:31:42.299Z,427.50
2022-10-19T08:32:42.430Z,461.25
2022-10-19T08:33:42.680Z,472.50
2022-10-19T08:34:42.752Z,427.50
2022-10-19T08:35:42.839Z,455.62
2022-10-19T08:36:42.962Z,298.12
2022-10-19T08:37:45.492Z,315.00
2022-10-19T08:38:43.278Z,337.50
2022-10-19T08:39:43.359Z,399.38
2022-10-19T08:40:43.519Z,399.38
2022-10-19T08:41:43.633Z,410.62
2022-10-19T08:42:43.748Z,399.38
2022-10-19T08:43:43.928Z,500.62
2022-10-19T08:44:44.018Z,360.00
2022-10-19T08:45:44.145Z,410.62
2022-10-19T08:46:44.268Z,399.38
2022-10-19T08:47:44.399Z,455.62
2022-10-19T08:48:44.581Z,506.25
2022-10-19T08:49:44.654Z,450.00
2022-10-19T08:50:44.814Z,399.38
2022-10-19T08:51:44.936Z,461.25
2022-10-19T08:52:45.084Z,466.88
2022-10-19T08:53:45.334Z,472.50
2022-10-19T08:55:45.495Z,393.75
2022-10-19T08:56:51.021Z,534.38
2022-10-19T08:57:46.755Z,433.12
2022-10-19T08:58:45.904Z,444.38
2022-10-19T08:59:46.005Z,393.75
2022-10-19T09:00:46.145Z,495.00
2022-10-19T09:01:46.274Z,393.75
2022-10-19T09:02:46.403Z,455.62
2022-10-19T09:04:01.823Z,523.12
2022-10-19T09:04:47.667Z,303.75
2022-10-19T09:05:46.781Z,517.50
2022-10-19T09:06:46.922Z,315.00
2022-10-19T09:07:47.045Z,343.12
2022-10-19T09:08:47.247Z,416.25
2022-10-19T09:09:47.376Z,433.12
2022-10-19T09:10:47.442Z,399.38
2022-10-19T09:11:47.587Z,399.38
2022-10-19T09:12:47.730Z,416.25
2022-10-19T09:14:04.092Z,466.88
2022-10-19T09:14:48.971Z,444.38
2022-10-19T09:15:48.122Z,421.88
2022-10-19T09:16:48.249Z,405.00
2022-10-19T09:17:48.370Z,421.88
2022-10-19T09:18:48.638Z,489.38
2022-10-19T09:19:48.638Z,438.75
2022-10-19T09:20:48.761Z,528.75
2022-10-19T09:21:48.891Z,455.62
2022-10-19T09:22:49.022Z,483.75
2022-10-19T09:23:49.176Z,410.62
2022-10-19T09:24:49.265Z,399.38
2022-10-19T09:25:49.396Z,466.88
2022-10-19T09:26:49.536Z,416.25
2022-10-19T09:27:49.715Z,416.25
2022-10-19T09:28:49.908Z,450.00
2022-10-19T09:29:49.948Z,365.62
2022-10-19T09:30:50.087Z,466.88
2022-10-19T09:31:50.305Z,450.00
2022-10-19T09:32:50.367Z,517.50
2022-10-19T09:33:50.667Z,500.62
2022-10-19T09:34:50.616Z,495.00
2022-10-19T09:35:50.744Z,416.25
2022-10-19T09:36:51.192Z,444.38
2022-10-19T09:37:51.014Z,444.38
2022-10-19T09:38:51.208Z,517.50
2022-10-19T09:39:54.113Z,461.25
2022-10-19T09:40:51.405Z,416.25
2022-10-19T09:41:51.544Z,382.50
2022-10-19T09:42:51.675Z,478.12
2022-10-19T09:43:51.837Z,405.00
2022-10-19T09:44:51.925Z,438.75
2022-10-19T09:45:52.057Z,478.12
2022-10-19T09:46:52.367Z,382.50
2022-10-19T09:47:52.333Z,472.50
2022-10-19T09:48:52.583Z,405.00
2022-10-19T09:49:52.592Z,421.88
2022-10-19T09:50:52.725Z,511.88
2022-10-19T09:51:52.869Z,450.00
2022-10-19T09:52:53.002Z,483.75
2022-10-19T09:53:53.293Z,455.62
2022-10-19T09:54:53.271Z,483.75
2022-10-19T09:55:53.402Z,500.62
2022-10-19T09:56:53.532Z,500.62
2022-10-19T09:57:53.660Z,562.50
2022-10-19T09:58:53.901Z,517.50
2022-10-19T09:59:53.951Z,511.88
2022-10-19T10:00:54.050Z,540.00
2022-10-19T10:01:54.311Z,601.88
2022-10-19T10:02:54.300Z,613.12
2022-10-19T10:03:56.067Z,495.00
2022-10-19T10:04:54.560Z,573.75
2022-10-19T10:05:54.710Z,680.62
2022-10-19T10:06:54.869Z,973.12
2022-10-19T10:07:54.974Z,545.62
2022-10-19T10:08:55.248Z,928.12
2022-10-19T10:09:55.268Z,855.00
2022-10-19T10:10:55.377Z,613.12
2022-10-19T10:12:55.607Z,703.12
2022-10-19T10:13:55.944Z,742.50
2022-10-19T10:14:55.875Z,652.50
2022-10-19T10:15:55.986Z,703.12
2022-10-19T10:16:56.077Z,669.38
2022-10-19T10:17:56.236Z,708.75
2022-10-19T10:18:56.406Z,630.00
2022-10-19T10:19:56.466Z,641.25
2022-10-19T10:21:56.684Z,680.62
2022-10-19T10:22:56.839Z,787.50
2022-10-19T10:23:56.964Z,1035.00
2022-10-19T10:24:57.062Z,736.88
2022-10-19T10:25:57.214Z,798.75
2022-10-19T10:26:57.304Z,900.00
2022-10-19T10:27:57.445Z,455.62
2022-10-19T10:29:00.658Z,472.50
2022-10-19T10:29:57.655Z,765.00
2022-10-19T10:30:57.772Z,697.50
2022-10-19T10:31:57.916Z,832.50
2022-10-19T10:33:04.703Z,624.38
2022-10-19T10:34:06.456Z,545.62
2022-10-19T10:35:01.252Z,585.00
2022-10-19T10:35:58.353Z,500.62
2022-10-19T10:36:58.482Z,703.12
2022-10-19T10:37:58.583Z,624.38
2022-10-19T10:38:58.836Z,810.00
2022-10-19T10:40:01.961Z,753.75
2022-10-19T10:40:59.980Z,866.25
2022-10-19T10:41:59.112Z,714.38
2022-10-19T10:42:59.203Z,663.75
2022-10-19T10:44:02.157Z,855.00
2022-10-19T10:45:00.472Z,933.75
2022-10-19T10:45:59.612Z,1001.25
2022-10-19T10:46:59.741Z,669.38
2022-10-19T10:47:59.878Z,821.25
2022-10-19T10:48:59.983Z,708.75
2022-10-19T10:50:00.116Z,832.50
2022-10-19T10:51:00.208Z,939.38
2022-10-19T10:52:00.305Z,1051.88
2022-10-19T10:53:00.400Z,939.38
2022-10-19T10:54:00.660Z,1023.75
2022-10-19T10:55:00.620Z,1068.75
2022-10-19T10:56:00.717Z,1125.00
2022-10-19T10:57:04.302Z,810.00
2022-10-19T10:58:01.978Z,810.00
2022-10-19T10:59:01.350Z,793.12
2022-10-19T11:00:01.249Z,697.50
2022-10-19T11:01:06.556Z,669.38
2022-10-19T11:02:02.544Z,489.38
2022-10-19T11:03:01.579Z,742.50
2022-10-19T11:04:01.721Z,843.75
2022-10-19T11:05:01.805Z,753.75
2022-10-19T11:06:01.958Z,776.25
2022-10-19T11:07:02.222Z,585.00
2022-10-19T11:08:02.218Z,495.00
2022-10-19T11:09:02.433Z,489.38
2022-10-19T11:10:02.417Z,410.62
2022-10-19T11:11:02.556Z,472.50
2022-10-19T11:12:02.676Z,483.75
2022-10-19T11:13:02.778Z,433.12
2022-10-19T11:14:02.989Z,365.62
2022-10-19T11:15:03.051Z,500.62
2022-10-19T11:16:03.144Z,421.88
2022-10-19T11:17:03.286Z,416.25
2022-10-19T11:18:03.455Z,416.25
2022-10-19T11:19:03.647Z,365.62
2022-10-19T11:20:03.714Z,354.38
2022-10-19T11:21:03.823Z,348.75
2022-10-19T11:22:03.925Z,354.38
2022-10-19T11:23:04.024Z,360.00
2022-10-19T11:24:04.174Z,365.62
2022-10-19T11:25:04.216Z,365.62
2022-10-19T11:26:04.324Z,365.62
2022-10-19T11:27:04.421Z,348.75
2022-10-19T11:28:04.566Z,343.12
2022-10-19T11:29:04.795Z,343.12
2022-10-19T11:30:05.147Z,348.75
2022-10-19T11:31:04.966Z,348.75
2022-10-19T11:32:05.060Z,354.38
2022-10-19T11:33:05.162Z,348.75
2022-10-19T11:34:05.316Z,427.50
2022-10-19T11:35:05.450Z,388.12
2022-10-19T11:36:05.552Z,365.62
2022-10-19T11:37:05.662Z,382.50
2022-10-19T11:38:23.386Z,376.88
2022-10-19T11:39:06.933Z,382.50
2022-10-19T11:40:06.012Z,433.12
2022-10-19T11:41:17.331Z,466.88
2022-10-19T11:42:07.221Z,590.62
2022-10-19T11:43:06.369Z,495.00
2022-10-19T11:44:06.632Z,545.62
2022-10-19T11:45:06.610Z,410.62
2022-10-19T11:46:06.771Z,399.38
2022-10-19T11:47:06.868Z,371.25
2022-10-19T11:48:06.970Z,523.12
2022-10-19T11:49:07.110Z,641.25
2022-10-19T11:50:07.230Z,618.75
2022-10-19T11:51:20.587Z,725.62
2022-10-19T11:52:08.450Z,562.50
2022-10-19T11:53:07.589Z,781.88
2022-10-19T11:54:12.392Z,843.75
2022-10-19T11:55:08.890Z,787.50
2022-10-19T11:56:07.989Z,945.00
2022-10-19T11:57:11.501Z,680.62
2022-10-19T11:58:08.222Z,748.12
2022-10-19T11:59:08.426Z,607.50
2022-10-19T12:00:14.516Z,540.00
2022-10-19T12:01:09.536Z,708.75
2022-10-19T12:02:08.734Z,613.12
2022-10-19T12:03:08.828Z,540.00
2022-10-19T12:04:08.958Z,517.50
2022-10-19T12:05:09.068Z,562.50
2022-10-19T12:06:09.183Z,540.00
2022-10-19T12:07:09.316Z,489.38
2022-10-19T12:08:09.527Z,495.00
2022-10-19T12:09:09.621Z,438.75
2022-10-19T12:10:09.686Z,635.62
2022-10-19T12:11:09.786Z,596.25
2022-10-19T12:12:09.887Z,551.25
2022-10-19T12:13:10.024Z,596.25
2022-10-19T12:14:10.212Z,534.38
2022-10-19T12:15:10.383Z,601.88
2022-10-19T12:16:10.440Z,551.25
2022-10-19T12:17:10.564Z,545.62
2022-10-19T12:18:10.665Z,714.38
2022-10-19T12:19:10.769Z,596.25
2022-10-19T12:20:12.260Z,568.12
2022-10-19T12:21:10.969Z,596.25
2022-10-19T12:22:11.114Z,765.00
2022-10-19T12:23:11.274Z,646.88
2022-10-19T12:24:11.423Z,601.88
2022-10-19T12:25:11.494Z,703.12
2022-10-19T12:26:11.710Z,596.25
2022-10-19T12:27:11.764Z,613.12
2022-10-19T12:28:11.933Z,613.12
2022-10-19T12:29:12.053Z,579.38
2022-10-19T12:30:12.133Z,635.62
2022-10-19T12:31:12.287Z,495.00
2022-10-19T12:32:12.436Z,517.50
2022-10-19T12:33:12.561Z,635.62
2022-10-19T12:34:12.662Z,601.88
2022-10-19T12:35:12.852Z,613.12
2022-10-19T12:36:12.922Z,641.25
2022-10-19T12:37:13.126Z,703.12
2022-10-19T12:38:13.163Z,680.62
2022-10-19T12:39:13.321Z,562.50
2022-10-19T12:40:13.423Z,601.88
2022-10-19T12:41:13.511Z,551.25
2022-10-19T12:42:13.609Z,562.50
2022-10-19T12:43:13.767Z,596.25
2022-10-19T12:44:13.963Z,675.00
2022-10-19T12:45:13.984Z,658.12
2022-10-19T12:46:14.129Z,669.38
2022-10-19T12:47:14.230Z,596.25
2022-10-19T12:48:14.338Z,624.38
2022-10-19T12:49:14.463Z,489.38
2022-10-19T12:50:14.579Z,551.25
2022-10-19T12:51:14.709Z,585.00
2022-10-19T12:52:14.819Z,528.75
2022-10-19T12:53:14.970Z,511.88
2022-10-19T12:54:15.173Z,540.00
2022-10-19T12:55:15.259Z,540.00
2022-10-19T12:56:15.308Z,534.38
2022-10-19T12:57:17.408Z,511.88
2022-10-19T12:58:16.558Z,545.62
2022-10-19T12:59:15.727Z,528.75
2022-10-19T13:00:15.821Z,489.38